Time;durP1;ratioP1;P1;durP2;ratioP2;P2;SDS_P1;SDS_P2;PMS_P1;PMS_P2;Temp;Humidity;BMP_temperature;BMP_pressure;BME280_temperature;BME280_humidity;BME280_pressure;Samples;Min_cycle;Max_cycle;Signal;HPM_P1;HPM_P2
2022/04/11 00:01:22;;;;;;;4.68;4.10;;;;;;;7.89;58.91;100076.97;4799072;29;20120;-90
2022/04/11 00:03:47;;;;;;;6.00;4.30;;;;;;;7.92;58.72;100072.38;4830331;29;20041;-89
2022/04/11 00:06:12;;;;;;;5.32;4.32;;;;;;;7.93;58.61;100074.06;4798308;29;20073;-90
2022/04/11 00:08:38;;;;;;;5.72;4.68;;;;;;;7.89;59.10;100076.97;4813204;29;20084;-91
2022/04/11 00:11:04;;;;;;;5.80;4.65;;;;;;;7.88;59.18;100069.94;4813630;29;20054;-91
2022/04/11 00:13:30;;;;;;;6.25;4.50;;;;;;;7.86;59.38;100068.34;4814445;29;20488;-90
2022/04/11 00:15:55;;;;;;;6.65;4.43;;;;;;;7.89;58.83;100063.66;4813980;29;20098;-90
2022/04/11 00:18:20;;;;;;;7.15;4.40;;;;;;;7.88;59.50;100063.75;4813873;29;20026;-90
2022/04/11 00:20:47;;;;;;;4.57;3.72;;;;;;;7.84;59.78;100060.50;4812674;29;20491;-90
2022/04/11 00:23:13;;;;;;;5.18;3.47;;;;;;;7.89;59.47;100054.81;4813836;29;20041;-90
2022/04/11 00:25:38;;;;;;;5.90;3.70;;;;;;;7.88;59.25;100053.97;4814426;29;20038;-90
2022/04/11 00:28:03;;;;;;;4.25;3.42;;;;;;;7.86;59.87;100050.56;4813164;29;20372;-91
2022/04/11 00:30:29;;;;;;;3.88;3.08;;;;;;;7.90;59.28;100045.84;4812976;29;20228;-90
2022/04/11 00:32:54;;;;;;;3.83;2.75;;;;;;;7.97;59.64;100041.75;4813517;29;20093;-90
2022/04/11 00:35:19;;;;;;;4.45;3.25;;;;;;;7.94;59.32;100041.13;4813318;29;20527;-90
2022/04/11 00:37:45;;;;;;;4.03;2.97;;;;;;;7.97;59.61;100035.56;4812840;29;20038;-90
2022/04/11 00:40:10;;;;;;;4.28;2.78;;;;;;;7.98;59.25;100034.59;4812721;29;20315;-90
2022/04/11 00:42:37;;;;;;;3.58;2.60;;;;;;;7.94;59.20;100038.47;4813065;29;20034;-90
2022/04/11 00:45:03;;;;;;;3.83;2.60;;;;;;;7.98;59.48;100035.44;4814343;29;20029;-90
2022/04/11 00:47:29;;;;;;;3.42;2.63;;;;;;;7.94;59.67;100030.50;4812563;29;20369;-91
2022/04/11 00:49:58;;;;;;;3.78;2.60;;;;;;;7.95;59.86;100021.53;4813344;29;20034;-90
2022/04/11 00:52:24;;;;;;;4.03;2.70;;;;;;;7.95;59.75;100025.03;4812710;29;20098;-90
2022/04/11 00:54:50;;;;;;;2.75;2.47;;;;;;;7.99;59.76;100020.31;4813061;29;20539;-90
2022/04/11 00:57:15;;;;;;;3.88;2.60;;;;;;;7.97;59.67;100020.44;4812088;29;20042;-91
2022/04/11 00:59:42;;;;;;;3.72;2.55;;;;;;;8.05;60.37;100023.38;4829191;29;20026;-90
2022/04/11 01:02:08;;;;;;;3.42;2.50;;;;;;;8.04;59.51;100026.13;4812704;29;20093;-90
2022/04/11 01:04:34;;;;;;;3.60;2.50;;;;;;;7.99;59.75;100018.50;4813335;29;20273;-90
2022/04/11 01:06:59;;;;;;;3.88;2.30;;;;;;;8.02;59.45;100017.41;4812409;29;20066;-91
2022/04/11 01:09:25;;;;;;;2.72;2.40;;;;;;;8.01;59.43;100013.91;4812657;29;20030;-91
2022/04/11 01:11:51;;;;;;;3.75;2.28;;;;;;;8.06;59.81;100013.59;4812463;29;20086;-90
2022/04/11 01:14:17;;;;;;;2.88;2.22;;;;;;;8.02;59.54;100012.94;4813362;29;20038;-90
2022/04/11 01:16:52;;;;;;;2.95;2.40;;;;;;;8.06;60.01;100011.75;4820195;29;20029;-90
2022/04/11 01:19:18;;;;;;;3.17;2.22;;;;;;;8.08;59.82;100012.50;4820145;29;20030;-90
2022/04/11 01:21:45;;;;;;;4.20;2.30;;;;;;;8.03;59.68;100011.97;4812431;29;20038;-91
2022/04/11 01:24:10;;;;;;;4.60;2.45;;;;;;;8.09;59.97;100008.00;4812935;29;20029;-90
2022/04/11 01:26:36;;;;;;;4.70;2.40;;;;;;;8.08;59.79;100003.66;4797393;29;20033;-90
2022/04/11 01:29:02;;;;;;;3.92;2.30;;;;;;;8.03;59.40;100008.47;4797439;29;20521;-90
2022/04/11 01:31:27;;;;;;;2.95;2.13;;;;;;;7.98;59.62;99997.31;4812073;29;20381;-90
2022/04/11 01:33:53;;;;;;;3.67;2.20;;;;;;;7.97;59.38;100001.81;4812592;29;20065;-90
2022/04/11 01:36:18;;;;;;;3.75;2.20;;;;;;;7.99;59.51;99999.88;4811697;29;20148;-90
2022/04/11 01:38:46;;;;;;;3.78;2.47;;;;;;;7.99;60.03;99994.53;4812904;29;20045;-90
2022/04/11 01:41:12;;;;;;;3.58;2.30;;;;;;;7.95;59.87;99989.59;4812872;29;20031;-90
2022/04/11 01:43:37;;;;;;;2.90;2.20;;;;;;;7.93;59.77;99983.53;4812190;29;20092;-90
2022/04/11 01:46:02;;;;;;;2.90;2.60;;;;;;;7.98;59.81;99989.34;4812163;29;20104;-90
2022/04/11 01:48:28;;;;;;;3.33;2.30;;;;;;;8.02;60.11;99988.97;4812375;29;20381;-90
2022/04/11 01:50:53;;;;;;;3.33;2.30;;;;;;;7.97;60.61;99984.97;4828919;29;20026;-90
2022/04/11 01:53:19;;;;;;;3.55;2.40;;;;;;;7.94;59.74;99988.72;4812185;29;20038;-90
2022/04/11 01:55:45;;;;;;;5.35;2.38;;;;;;;7.92;60.00;99987.16;4812033;29;20026;-90
2022/04/11 01:58:11;;;;;;;2.72;2.17;;;;;;;8.00;61.01;99982.06;4819659;29;20033;-90
2022/04/11 02:00:38;;;;;;;3.13;2.13;;;;;;;7.95;60.27;99981.59;4798310;29;20082;-90
2022/04/11 02:03:04;;;;;;;2.63;2.10;;;;;;;7.93;60.08;99987.03;4812941;29;20468;-91
2022/04/11 02:05:30;;;;;;;2.55;2.13;;;;;;;7.93;59.94;99987.03;4796275;29;20045;-90
2022/04/11 02:07:56;;;;;;;3.17;2.13;;;;;;;7.90;60.07;99992.59;4811470;29;20126;-90
2022/04/11 02:10:22;;;;;;;5.75;2.20;;;;;;;7.97;60.18;99992.97;4820152;29;20034;-90
2022/04/11 02:12:48;;;;;;;3.42;2.30;;;;;;;7.87;60.22;99987.53;4811431;29;20130;-90
2022/04/11 02:15:13;;;;;;;4.35;2.20;;;;;;;7.81;60.25;99988.84;4811052;29;21033;-91
2022/04/11 02:17:39;;;;;;;3.70;2.30;;;;;;;7.75;60.21;99984.00;4834078;29;20091;-90
2022/04/11 02:20:05;;;;;;;3.92;2.13;;;;;;;7.74;60.53;99977.00;4811832;29;20078;-90
2022/04/11 02:22:57;;;;;;;5.65;2.10;;;;;;;7.77;60.17;99975.91;4796885;29;20312;-90
2022/04/11 02:25:27;;;;;;;3.85;2.05;;;;;;;7.76;60.33;99974.22;4801803;29;20171;-90
2022/04/11 02:27:54;;;;;;;2.45;2.10;;;;;;;7.72;60.19;99978.94;4815269;29;20512;-90
2022/04/11 02:30:22;;;;;;;3.00;1.80;;;;;;;7.72;60.32;99973.59;4823246;29;20288;-90
2022/04/11 02:32:48;;;;;;;3.20;1.80;;;;;;;7.73;60.67;99977.13;4816009;29;20039;-90
2022/04/11 02:35:13;;;;;;;4.35;2.20;;;;;;;7.71;60.40;99977.22;4815640;29;20140;-90
2022/04/11 02:37:39;;;;;;;5.88;2.13;;;;;;;7.72;60.60;99973.59;4800044;29;20358;-90
2022/04/11 02:40:07;;;;;;;2.92;2.10;;;;;;;7.73;60.47;99975.28;4815053;29;20479;-90
2022/04/11 02:42:33;;;;;;;4.07;1.80;;;;;;;7.74;60.49;99982.31;4822566;29;20349;-90
2022/04/11 02:44:58;;;;;;;3.00;1.90;;;;;;;7.70;60.64;99974.69;4831173;29;20030;-90
2022/04/11 02:47:24;;;;;;;3.58;2.17;;;;;;;7.65;60.88;99975.03;4816172;29;20034;-90
2022/04/11 02:49:49;;;;;;;3.55;2.10;;;;;;;7.64;61.08;99970.69;4815631;29;20053;-90
2022/04/11 02:52:15;;;;;;;2.38;1.90;;;;;;;7.63;61.39;99968.16;4838050;29;20073;-90
2022/04/11 02:54:41;;;;;;;3.83;2.00;;;;;;;7.64;60.86;99969.84;4800299;29;20030;-90
2022/04/11 02:57:07;;;;;;;3.35;1.98;;;;;;;7.61;61.35;99962.94;4814945;29;20041;-90
2022/04/11 02:59:33;;;;;;;3.47;2.30;;;;;;;7.60;61.26;99969.25;4814929;29;20455;-90
2022/04/11 03:01:59;;;;;;;3.30;1.77;;;;;;;7.60;61.27;99958.59;4814152;29;20049;-91
2022/04/11 03:04:26;;;;;;;3.22;2.00;;;;;;;7.60;60.91;99960.41;4815588;29;20049;-90
2022/04/11 03:06:51;;;;;;;3.70;2.30;;;;;;;7.57;61.64;99965.00;4813376;29;20050;-90
2022/04/11 03:09:17;;;;;;;4.72;1.90;;;;;;;7.56;61.59;99959.78;4814185;29;20136;-90
2022/04/11 03:11:42;;;;;;;2.42;1.80;;;;;;;7.54;61.78;99962.53;4829917;29;20080;-91
2022/04/11 03:14:07;;;;;;;3.40;1.90;;;;;;;7.56;61.49;99962.44;4831551;29;20113;-90
2022/04/11 03:16:34;;;;;;;2.50;2.10;;;;;;;7.54;61.95;99961.69;4815007;29;20038;-90
2022/04/11 03:18:59;;;;;;;3.40;2.10;;;;;;;7.51;62.31;99960.13;4799400;29;20061;-90
2022/04/11 03:21:24;;;;;;;3.25;2.03;;;;;;;7.49;61.68;99966.53;4815258;29;20477;-90
2022/04/11 03:23:50;;;;;;;2.92;2.00;;;;;;;7.49;62.34;99969.19;4813977;29;20044;-90
2022/04/11 03:26:15;;;;;;;3.63;1.92;;;;;;;7.45;62.19;99968.59;4799770;29;20097;-90
2022/04/11 03:28:40;;;;;;;2.22;2.03;;;;;;;7.45;62.65;99957.94;4813404;29;20026;-90
2022/04/11 03:31:06;;;;;;;3.22;2.25;;;;;;;7.44;62.36;99969.53;4814789;29;20038;-90
2022/04/11 03:33:31;;;;;;;3.33;2.22;;;;;;;7.40;62.73;99959.25;4836919;29;20051;-90
2022/04/11 03:35:56;;;;;;;4.22;2.20;;;;;;;7.40;62.84;99967.25;4828152;29;20030;-90
2022/04/11 03:38:22;;;;;;;3.42;1.80;;;;;;;7.39;62.82;99966.38;4813665;29;20034;-91
2022/04/11 03:40:47;;;;;;;2.30;2.08;;;;;;;7.38;63.18;99962.03;4814159;29;20061;-90
2022/04/11 03:43:22;;;;;;;2.45;2.00;;;;;;;7.38;62.91;99962.03;4800302;29;20045;-91
2022/04/11 03:45:47;;;;;;;3.88;2.03;;;;;;;7.37;62.36;99957.69;4814896;29;20349;-90
2022/04/11 03:48:12;;;;;;;5.13;2.00;;;;;;;7.40;62.70;99952.13;4814523;29;20114;-90
2022/04/11 03:50:38;;;;;;;2.55;1.85;;;;;;;7.40;62.21;99956.59;4814578;29;20103;-90
2022/04/11 03:53:03;;;;;;;5.22;2.20;;;;;;;7.37;62.11;99948.84;4813937;29;20472;-90
2022/04/11 03:55:28;;;;;;;4.35;1.75;;;;;;;7.37;62.28;99955.03;4814562;29;20094;-90
2022/04/11 03:57:53;;;;;;;3.60;2.05;;;;;;;7.31;62.13;99947.50;4812077;29;20038;-90
2022/04/11 04:00:19;;;;;;;2.47;2.00;;;;;;;7.30;62.73;99945.81;4829637;29;20034;-90
2022/04/11 04:02:45;;;;;;;4.05;2.10;;;;;;;7.28;62.79;99953.06;4829539;29;20077;-90
2022/04/11 04:05:10;;;;;;;4.57;1.77;;;;;;;7.28;62.92;99949.56;4814096;29;20118;-90
2022/04/11 04:07:39;;;;;;;4.80;2.55;;;;;;;7.24;62.52;99947.13;4798391;29;20424;-90
2022/04/11 04:10:04;;;;;;;5.57;2.20;;;;;;;7.23;63.04;99945.44;4813862;29;20103;-90
2022/04/11 04:12:30;;;;;;;3.92;1.85;;;;;;;7.21;62.76;99957.16;4829980;29;20038;-90
2022/04/11 04:14:55;;;;;;;2.80;1.80;;;;;;;7.19;62.90;99946.66;4813721;29;20055;-90
2022/04/11 04:17:20;;;;;;;3.10;2.10;;;;;;;7.16;63.58;99951.34;4813810;29;20052;-90
2022/04/11 04:19:46;;;;;;;3.88;1.88;;;;;;;7.17;63.44;99951.22;4813287;29;20038;-90
2022/04/11 04:22:11;;;;;;;3.95;1.98;;;;;;;7.11;64.15;99954.38;4813882;29;20113;-90
2022/04/11 04:24:37;;;;;;;4.13;1.95;;;;;;;7.11;64.12;99951.69;4813064;29;20380;-89
2022/04/11 04:27:03;;;;;;;4.75;2.40;;;;;;;7.11;63.68;99951.69;4813845;29;20068;-90
2022/04/11 04:29:29;;;;;;;3.45;2.10;;;;;;;7.10;64.21;99943.84;4806003;29;20042;-90
2022/04/11 04:31:54;;;;;;;3.30;2.20;;;;;;;7.07;64.64;99949.38;4813704;29;20042;-90
2022/04/11 04:34:22;;;;;;;5.15;2.22;;;;;;;7.07;64.71;99952.03;4814344;29;20037;-90
2022/04/11 04:36:48;;;;;;;4.30;2.40;;;;;;;7.04;65.10;99950.44;4814082;29;20041;-90
2022/04/11 04:39:14;;;;;;;4.00;2.10;;;;;;;7.01;65.43;99957.81;4797874;29;20360;-90
2022/04/11 04:41:39;;;;;;;2.72;2.17;;;;;;;6.99;65.05;99955.25;4813872;29;20031;-90
2022/04/11 04:44:06;;;;;;;3.85;2.17;;;;;;;7.01;65.35;99956.00;4835876;29;20073;-90
2022/04/11 04:46:34;;;;;;;3.42;1.98;;;;;;;6.97;65.17;99951.03;4813054;29;20030;-90
2022/04/11 04:49:00;;;;;;;3.78;2.00;;;;;;;6.90;65.68;99954.13;4797374;29;20041;-90
2022/04/11 04:51:25;;;;;;;11.88;9.50;;;;;;;6.93;65.68;99953.06;4813293;29;20476;-90
2022/04/11 04:53:50;;;;;;;8.93;4.97;;;;;;;6.95;65.79;99951.13;4821277;29;20034;-90
2022/04/11 04:56:16;;;;;;;4.45;2.60;;;;;;;6.91;65.75;99953.19;4797804;29;20375;-90
2022/04/11 04:58:41;;;;;;;3.72;2.30;;;;;;;6.85;65.58;99950.97;4812650;29;20030;-90
2022/04/11 05:01:07;;;;;;;6.07;2.30;;;;;;;6.83;65.40;99944.94;4813314;29;20041;-90
2022/04/11 05:03:32;;;;;;;3.40;1.98;;;;;;;6.90;65.98;99945.31;4813155;29;20125;-90
2022/04/11 05:05:58;;;;;;;4.55;2.28;;;;;;;6.88;65.67;99941.94;4797849;29;20220;-90
2022/04/11 05:08:23;;;;;;;4.97;2.50;;;;;;;6.87;65.79;99949.06;4828183;29;20050;-90
2022/04/11 05:10:48;;;;;;;5.38;2.60;;;;;;;6.88;65.68;99944.59;4827967;29;20030;-90
2022/04/11 05:13:14;;;;;;;4.20;2.45;;;;;;;6.88;65.66;99939.28;4812731;29;20086;-90
2022/04/11 05:15:42;;;;;;;3.38;2.30;;;;;;;6.86;65.82;99939.38;4811862;29;20065;-90
2022/04/11 05:18:08;;;;;;;4.53;2.42;;;;;;;6.84;65.61;99945.78;4813975;29;20038;-90
2022/04/11 05:20:33;;;;;;;4.47;2.20;;;;;;;6.83;65.67;99944.09;4814037;29;20049;-90
2022/04/11 05:22:58;;;;;;;4.10;2.60;;;;;;;6.84;65.94;99941.31;4827336;29;20061;-90
2022/04/11 05:25:24;;;;;;;4.38;2.50;;;;;;;6.86;65.90;99936.72;4812857;29;20376;-90
2022/04/11 05:27:50;;;;;;;3.28;2.42;;;;;;;6.84;66.21;99935.16;4811877;29;20034;-90
2022/04/11 05:30:15;;;;;;;3.20;2.35;;;;;;;6.84;65.75;99940.47;4812690;29;20383;-90
2022/04/11 05:32:41;;;;;;;6.10;3.45;;;;;;;6.85;65.97;99936.84;4811516;29;20293;-90
2022/04/11 05:35:07;;;;;;;8.55;2.95;;;;;;;6.81;66.68;99941.53;4812657;29;20041;-90
2022/04/11 05:37:32;;;;;;;4.45;2.90;;;;;;;6.83;66.64;99934.31;4811558;29;20120;-90
2022/04/11 05:39:58;;;;;;;5.88;2.40;;;;;;;6.83;66.91;99930.78;4813511;29;20121;-90
2022/04/11 05:42:23;;;;;;;5.82;2.80;;;;;;;6.84;66.44;99927.19;4811614;29;20034;-90
2022/04/11 05:44:48;;;;;;;5.57;2.63;;;;;;;6.79;67.21;99935.50;4813163;29;20029;-90
2022/04/11 05:47:13;;;;;;;4.95;2.38;;;;;;;6.82;67.29;99935.25;4811195;29;20057;-89
2022/04/11 05:49:39;;;;;;;7.45;2.80;;;;;;;6.86;66.83;99938.53;4812100;29;20829;-90
2022/04/11 05:52:06;;;;;;;4.63;2.78;;;;;;;6.85;67.29;99937.69;4812572;29;20045;-90
2022/04/11 05:54:31;;;;;;;5.75;2.90;;;;;;;6.90;67.27;99938.19;4812470;29;20461;-90
2022/04/11 05:56:57;;;;;;;7.22;2.60;;;;;;;6.89;67.29;99933.00;4811858;29;20042;-90
2022/04/11 05:59:22;;;;;;;4.80;2.53;;;;;;;6.89;67.14;99935.66;4816085;29;20026;-90
2022/04/11 06:01:48;;;;;;;4.57;2.70;;;;;;;6.90;67.09;99935.53;4816266;29;20041;-90
2022/04/11 06:04:13;;;;;;;4.88;2.85;;;;;;;6.95;67.37;99935.19;4815915;29;20038;-90
2022/04/11 06:06:39;;;;;;;3.30;2.22;;;;;;;6.94;66.82;99937.00;4815476;29;20050;-90
2022/04/11 06:09:04;;;;;;;3.67;2.70;;;;;;;6.97;66.67;99935.91;4817180;29;20050;-90
2022/04/11 06:11:30;;;;;;;7.90;2.60;;;;;;;7.00;66.14;99933.03;4801990;29;20113;-90
2022/04/11 06:13:55;;;;;;;4.35;2.50;;;;;;;7.03;66.35;99935.44;4816015;29;20042;-90
2022/04/11 06:16:21;;;;;;;2.53;2.20;;;;;;;7.10;65.74;99925.22;4815642;29;20131;-90
2022/04/11 06:18:46;;;;;;;5.63;2.33;;;;;;;7.15;65.62;99931.03;4823175;29;20044;-90
2022/04/11 06:21:11;;;;;;;5.53;2.25;;;;;;;7.15;65.38;99926.56;4816275;29;20052;-90
2022/04/11 06:23:36;;;;;;;8.40;2.78;;;;;;;7.16;65.61;99917.63;4815414;29;20030;-90
2022/04/11 06:26:02;;;;;;;2.67;2.28;;;;;;;7.23;65.19;99920.66;4815410;29;20065;-90
2022/04/11 06:28:28;;;;;;;3.92;2.67;;;;;;;7.28;65.32;99921.16;4816333;29;20026;-90
2022/04/11 06:30:53;;;;;;;2.75;2.25;;;;;;;7.29;64.64;99916.69;4815351;29;20490;-90
2022/04/11 06:33:18;;;;;;;4.05;2.10;;;;;;;7.35;64.36;99916.22;4815853;29;20485;-90
2022/04/11 06:35:44;;;;;;;3.55;2.30;;;;;;;7.39;64.09;99918.50;4815018;29;20044;-90
2022/04/11 06:38:09;;;;;;;2.75;2.17;;;;;;;7.40;64.17;99916.69;4815842;29;20034;-90
2022/04/11 06:40:35;;;;;;;2.70;2.13;;;;;;;7.41;64.23;99911.25;4801037;29;20038;-90
2022/04/11 06:43:00;;;;;;;4.18;2.30;;;;;;;7.44;64.34;99913.69;4815032;29;20038;-88
2022/04/11 06:45:25;;;;;;;3.72;2.13;;;;;;;7.46;64.51;99917.06;4817270;29;20057;-90
2022/04/11 06:47:50;;;;;;;6.55;2.30;;;;;;;7.46;64.16;99910.91;4815001;29;20038;-90
2022/04/11 06:50:16;;;;;;;4.95;2.20;;;;;;;7.48;64.25;99912.47;4816192;29;20031;-90
2022/04/11 06:52:41;;;;;;;5.22;2.30;;;;;;;7.54;64.35;99908.47;4830656;29;20764;-90
2022/04/11 06:55:07;;;;;;;5.90;2.17;;;;;;;7.61;64.14;99916.88;4815331;29;20034;-90
2022/04/11 06:57:33;;;;;;;2.53;1.92;;;;;;;7.57;64.52;99918.91;4816506;29;20034;-90
2022/04/11 06:59:58;;;;;;;5.72;2.28;;;;;;;7.57;64.33;99911.78;4816046;29;20038;-90
2022/04/11 07:02:23;;;;;;;3.90;2.22;;;;;;;7.64;64.13;99913.97;4814804;29;20720;-90
2022/04/11 07:04:49;;;;;;;3.40;2.30;;;;;;;7.63;64.63;99913.13;4815595;29;20147;-90
2022/04/11 07:07:14;;;;;;;3.55;2.25;;;;;;;7.69;64.49;99915.28;4813445;29;20145;-90
2022/04/11 07:09:40;;;;;;;5.10;2.10;;;;;;;7.73;64.03;99914.06;4814767;29;20137;-90
2022/04/11 07:12:05;;;;;;;3.65;2.22;;;;;;;7.75;63.71;99912.16;4813345;29;20452;-90
2022/04/11 07:14:31;;;;;;;4.75;2.15;;;;;;;7.76;63.67;99911.19;4815905;29;20676;-90
2022/04/11 07:16:56;;;;;;;4.43;2.10;;;;;;;7.80;63.78;99906.47;4829044;29;20057;-90
2022/04/11 07:19:21;;;;;;;6.22;2.00;;;;;;;7.80;63.70;99912.63;4814959;29;20132;-90
2022/04/11 07:21:47;;;;;;;3.15;2.00;;;;;;;7.80;63.59;99898.47;4829390;29;20406;-90
2022/04/11 07:24:13;;;;;;;4.30;2.25;;;;;;;7.84;63.50;99906.09;4814807;29;20034;-90
2022/04/11 07:26:40;;;;;;;4.13;1.80;;;;;;;7.89;63.59;99903.06;4814449;29;20030;-90
2022/04/11 07:29:06;;;;;;;3.85;2.00;;;;;;;7.94;63.35;99895.53;4814752;29;20492;-90
2022/04/11 07:31:31;;;;;;;3.88;1.85;;;;;;;7.99;63.55;99897.84;4815841;29;20045;-90
2022/04/11 07:33:56;;;;;;;4.13;1.77;;;;;;;8.02;63.49;99897.59;4814375;29;20042;-90
2022/04/11 07:36:22;;;;;;;2.80;1.50;;;;;;;8.10;62.45;99897.84;4828752;29;20042;-90
2022/04/11 07:38:47;;;;;;;2.42;1.30;;;;;;;8.09;62.22;99886.34;4813643;29;20057;-90
2022/04/11 07:41:12;;;;;;;2.10;1.40;;;;;;;8.08;62.22;99878.50;4814727;29;20034;-90
2022/04/11 07:43:38;;;;;;;2.08;1.65;;;;;;;8.13;62.36;99878.97;4814344;29;20199;-90
2022/04/11 07:46:05;;;;;;;5.35;1.80;;;;;;;8.12;61.25;99880.78;4814443;29;20144;-90
2022/04/11 07:48:31;;;;;;;2.85;1.45;;;;;;;8.16;61.15;99884.03;4814761;29;20052;-90
2022/04/11 07:50:56;;;;;;;3.15;1.48;;;;;;;8.20;60.90;99875.66;4799131;29;20383;-90
2022/04/11 07:53:22;;;;;;;1.75;1.55;;;;;;;8.21;60.42;99874.69;4831521;29;20592;-90
2022/04/11 07:55:47;;;;;;;3.42;1.58;;;;;;;8.21;60.57;99876.50;4814392;29;20337;-92
2022/04/11 07:58:13;;;;;;;4.18;1.42;;;;;;;8.25;60.51;99877.09;4813037;29;20066;-92
2022/04/11 08:00:39;;;;;;;2.00;1.35;;;;;;;8.30;61.77;99875.75;4828529;29;20050;-92
2022/04/11 08:03:04;;;;;;;2.00;1.30;;;;;;;8.39;60.37;99872.38;4813524;29;20038;-92
2022/04/11 08:05:30;;;;;;;2.00;1.30;;;;;;;8.42;61.11;99865.94;4828031;29;20042;-92
2022/04/11 08:07:55;;;;;;;3.42;1.58;;;;;;;8.41;60.05;99865.09;4814566;29;20262;-92
2022/04/11 08:10:23;;;;;;;4.30;1.77;;;;;;;8.43;60.01;99870.28;4814738;29;20550;-92
2022/04/11 08:12:57;;;;;;;3.25;1.45;;;;;;;8.48;60.89;99871.59;4815825;29;20353;-92
2022/04/11 08:15:23;;;;;;;4.32;1.77;;;;;;;8.45;59.64;99869.19;4821137;29;20114;-92
2022/04/11 08:17:48;;;;;;;3.08;1.40;;;;;;;8.44;58.81;99864.00;4813540;29;20041;-92
2022/04/11 08:20:14;;;;;;;3.63;1.70;;;;;;;8.41;58.70;99866.91;4814484;29;20441;-92
2022/04/11 08:22:39;;;;;;;2.20;1.35;;;;;;;8.41;58.75;99866.91;4804005;29;20516;-92
2022/04/11 08:25:05;;;;;;;3.22;1.55;;;;;;;8.43;59.18;99857.81;4798773;29;20061;-92
2022/04/11 08:27:30;;;;;;;2.50;1.60;;;;;;;8.44;59.20;99856.84;4798173;29;20022;-92
2022/04/11 08:29:56;;;;;;;3.95;1.30;;;;;;;8.49;58.96;99859.97;4812896;29;20050;-92
2022/04/11 08:32:21;;;;;;;2.50;1.45;;;;;;;8.49;58.81;99859.97;4813947;29;20058;-92
2022/04/11 08:34:46;;;;;;;3.10;1.30;;;;;;;8.55;58.56;99840.00;4812721;29;20428;-92
2022/04/11 08:37:11;;;;;;;2.80;1.50;;;;;;;8.59;58.10;99837.91;4828185;29;20112;-92
2022/04/11 08:39:38;;;;;;;1.42;1.30;;;;;;;8.56;57.79;99831.03;4813491;29;20049;-92
2022/04/11 08:42:03;;;;;;;2.00;1.30;;;;;;;8.62;57.18;99827.00;4813702;29;20030;-92
2022/04/11 08:44:29;;;;;;;2.13;1.27;;;;;;;8.60;57.84;99826.28;4820634;29;20790;-92
2022/04/11 08:47:03;;;;;;;1.95;1.30;;;;;;;8.65;57.96;99821.41;4798369;29;20038;-91
2022/04/11 08:49:29;;;;;;;2.05;1.55;;;;;;;8.66;57.63;99826.59;4812877;29;20034;-92
2022/04/11 08:51:55;;;;;;;2.90;1.13;;;;;;;8.65;57.23;99826.75;4813847;29;20062;-92
2022/04/11 08:54:20;;;;;;;1.52;1.20;;;;;;;8.67;56.50;99824.78;4812515;29;20033;-92
2022/04/11 08:56:45;;;;;;;2.47;1.48;;;;;;;8.68;56.41;99823.81;4812750;29;20085;-92
2022/04/11 08:59:11;;;;;;;1.73;1.20;;;;;;;8.72;57.30;99830.56;4799250;29;20041;-92
2022/04/11 09:01:36;;;;;;;4.25;1.30;;;;;;;8.75;57.59;99835.66;4796742;29;20061;-92
2022/04/11 09:04:02;;;;;;;2.65;1.45;;;;;;;8.84;56.87;99832.19;4796213;29;20033;-92
2022/04/11 09:06:31;;;;;;;2.05;1.33;;;;;;;8.84;57.89;99833.03;4813651;29;20145;-92
2022/04/11 09:08:58;;;;;;;2.20;1.30;;;;;;;8.88;56.53;99836.28;4819330;29;20128;-92
2022/04/11 09:11:37;;;;;;;1.67;1.23;;;;;;;8.88;56.10;99824.78;4798277;29;20057;-93
2022/04/11 09:14:06;;;;;;;;;;;;;;;8.89;55.53;99831.81;4804784;29;20049;-92
2022/04/11 09:16:51;;;;;;;2.08;1.20;;;;;;;8.90;57.80;99831.69;4797350;29;20052;-92
2022/04/11 09:19:27;;;;;;;4.55;1.40;;;;;;;8.92;56.98;99832.38;4798035;29;20038;-92
2022/04/11 09:21:54;;;;;;;2.33;1.40;;;;;;;8.88;56.71;99836.28;4813400;29;20034;-92
2022/04/11 09:24:21;;;;;;;2.55;1.13;;;;;;;8.86;58.17;99840.91;4813007;29;20630;-92
2022/04/11 09:26:47;;;;;;;3.67;1.67;;;;;;;8.92;57.37;99828.88;4819809;29;20053;-92
2022/04/11 09:29:12;;;;;;;2.50;1.33;;;;;;;8.92;57.45;99824.38;4813643;29;20050;-92
2022/04/11 09:31:38;;;;;;;1.65;1.35;;;;;;;8.98;57.20;99831.03;4797410;29;20153;-92
2022/04/11 09:34:21;;;;;;;2.70;1.83;;;;;;;8.94;57.33;99830.44;4812146;29;20106;-92
2022/04/11 09:36:51;;;;;;;3.03;1.27;;;;;;;8.95;58.55;99817.94;4797227;29;20487;-92
2022/04/11 09:39:21;;;;;;;3.08;1.30;;;;;;;8.94;59.15;99819.78;4811117;29;20038;-92
2022/04/11 09:41:47;;;;;;;3.33;1.45;;;;;;;8.99;59.08;99811.41;4798252;29;20066;-91
2022/04/11 09:44:30;;;;;;;1.90;1.20;;;;;;;9.03;58.34;99800.34;4798308;29;20034;-92
2022/04/11 09:47:05;;;;;;;2.08;1.42;;;;;;;9.05;58.25;99805.53;4798066;29;20062;-92
2022/04/11 09:49:33;;;;;;;1.88;1.00;;;;;;;9.11;57.85;99795.19;4835061;29;20042;-92
2022/04/11 09:52:08;;;;;;;1.58;1.10;;;;;;;9.15;57.48;99798.44;4798246;29;20030;-92
2022/04/11 09:54:35;;;;;;;2.55;1.35;;;;;;;9.13;57.53;99790.56;4820264;29;20524;-92
2022/04/11 09:57:02;;;;;;;2.03;1.33;;;;;;;9.15;58.46;99795.75;4797486;29;20041;-92
2022/04/11 09:59:27;;;;;;;2.10;1.10;;;;;;;9.15;59.16;99793.94;4797790;29;20116;-92
2022/04/11 10:01:54;;;;;;;2.95;1.20;;;;;;;9.15;59.46;99780.59;4812702;29;20121;-92
2022/04/11 10:04:20;;;;;;;3.25;1.20;;;;;;;9.15;58.29;99783.28;4812991;29;20045;-92
2022/04/11 10:06:46;;;;;;;2.60;1.10;;;;;;;9.21;58.10;99783.72;4819039;29;20053;-92
2022/04/11 10:09:15;;;;;;;3.75;1.10;;;;;;;9.21;58.67;99778.38;4812803;29;20042;-92
2022/04/11 10:11:41;;;;;;;1.85;1.00;;;;;;;9.29;58.28;99762.53;4811156;29;20042;-92
2022/04/11 10:14:10;;;;;;;1.30;1.20;;;;;;;9.30;60.05;99764.22;4810453;29;20038;-92
2022/04/11 10:16:40;;;;;;;2.08;1.20;;;;;;;9.33;56.47;99758.63;4834176;29;20034;-92
2022/04/11 10:19:05;;;;;;;1.52;1.10;;;;;;;9.30;58.64;99757.06;4812875;29;20453;-92
2022/04/11 10:21:32;;;;;;;4.85;1.50;;;;;;;9.38;56.85;99756.41;4812713;29;20030;-92
2022/04/11 10:24:05;;;;;;;3.60;1.30;;;;;;;9.41;55.72;99756.13;4796391;29;20035;-92
2022/04/11 10:26:42;;;;;;;2.13;1.10;;;;;;;9.41;59.13;99750.78;4819165;29;20251;-92
2022/04/11 10:29:33;;;;;;;2.55;1.13;;;;;;;9.40;56.78;99749.09;4820089;29;20057;-92
2022/04/11 10:32:07;;;;;;;3.78;1.10;;;;;;;9.54;55.15;99745.22;4795970;29;20030;-92
2022/04/11 10:34:58;;;;;;;3.17;1.20;;;;;;;9.50;56.11;99742.00;4812861;29;20052;-92
2022/04/11 10:37:49;;;;;;;2.00;1.23;;;;;;;9.52;58.11;99729.34;4796780;29;20042;-92
2022/04/11 10:40:17;;;;;;;2.05;1.17;;;;;;;9.54;58.98;99732.72;4812476;29;20180;-92
2022/04/11 10:42:58;;;;;;;1.85;1.20;;;;;;;9.55;57.03;99722.88;4819213;29;20038;-92
2022/04/11 10:45:35;;;;;;;2.08;1.10;;;;;;;9.50;57.59;99723.31;4830298;29;20501;-92
2022/04/11 10:48:02;;;;;;;2.80;1.00;;;;;;;9.50;57.94;99725.13;4807696;29;20080;-92
2022/04/11 10:50:40;;;;;;;1.95;1.20;;;;;;;9.56;57.29;99724.56;4799940;29;20125;-92
2022/04/11 10:53:13;;;;;;;2.40;1.17;;;;;;;9.64;57.88;99720.25;4815109;29;20057;-92
2022/04/11 10:56:08;;;;;;;2.47;1.13;;;;;;;9.60;59.79;99712.63;4822313;29;20410;-92
2022/04/11 10:58:44;;;;;;;1.75;1.10;;;;;;;9.58;61.13;99706.59;4800321;29;20042;-92
2022/04/11 11:01:10;;;;;;;1.00;0.90;;;;;;;9.57;61.34;99703.09;4822566;29;20131;-91
2022/04/11 11:03:35;;;;;;;1.83;1.20;;;;;;;9.66;60.81;99693.41;4814275;29;20149;-92
2022/04/11 11:06:20;;;;;;;2.38;1.30;;;;;;;9.70;61.88;99692.97;4814959;29;20519;-92
2022/04/11 11:08:45;;;;;;;1.70;1.10;;;;;;;9.71;63.22;99691.16;4814991;29;20124;-92
2022/04/11 11:11:26;;;;;;;2.97;1.40;;;;;;;9.73;60.84;99687.34;4807176;29;20120;-92
2022/04/11 11:13:54;;;;;;;1.10;1.00;;;;;;;9.75;61.96;99692.56;4816037;29;20053;-92
2022/04/11 11:16:19;;;;;;;1.88;1.30;;;;;;;9.76;59.57;99681.75;4813254;29;20285;-92
2022/04/11 11:18:53;;;;;;;3.03;1.10;;;;;;;9.83;58.34;99689.19;4831652;29;20483;-92
2022/04/11 11:21:33;;;;;;;1.30;1.00;;;;;;;9.86;59.90;99686.25;4814217;29;20038;-92
2022/04/11 11:24:04;;;;;;;3.75;1.25;;;;;;;9.88;58.24;99677.09;4831494;29;20030;-90
2022/04/11 11:26:47;;;;;;;2.28;1.10;;;;;;;9.89;58.39;99677.94;4814800;29;20304;-92
2022/04/11 11:29:14;;;;;;;2.25;1.30;;;;;;;9.89;60.28;99668.09;4800486;29;20349;-92
2022/04/11 11:31:40;;;;;;;2.17;1.30;;;;;;;9.98;60.06;99666.44;4813560;29;20110;-92
2022/04/11 11:34:10;;;;;;;2.20;1.20;;;;;;;10.01;57.97;99666.16;4813819;29;20449;-92
2022/04/11 11:36:36;;;;;;;3.20;1.10;;;;;;;10.00;57.63;99662.66;4813359;29;20048;-92
2022/04/11 11:39:11;;;;;;;2.03;1.10;;;;;;;10.05;56.06;99660.38;4815554;29;20033;-92
2022/04/11 11:41:37;;;;;;;3.40;1.25;;;;;;;10.06;58.83;99650.53;4813580;29;20385;-92